createdAt,value
2022-11-20T00:00:16.320Z,9.279813
2022-11-20T00:01:16.310Z,9.279819
2022-11-20T00:02:17.333Z,9.279814
2022-11-20T00:03:16.252Z,9.279782
2022-11-20T00:04:16.230Z,9.279828
2022-11-20T00:05:17.211Z,9.279820
2022-11-20T00:06:16.243Z,9.279836
2022-11-20T00:07:16.211Z,9.279838
2022-11-20T00:08:16.160Z,9.279856
2022-11-20T00:09:16.132Z,9.279835
2022-11-20T00:10:16.118Z,9.279927
2022-11-20T00:11:16.682Z,9.279749
2022-11-20T00:12:17.102Z,9.279846
2022-11-20T00:13:16.063Z,9.279901
2022-11-20T00:14:16.039Z,9.279921
2022-11-20T00:15:16.028Z,9.279971
2022-11-20T00:16:16.094Z,9.279872
2022-11-20T00:17:16.010Z,9.279757
2022-11-20T00:18:15.976Z,9.279772
2022-11-20T00:19:15.949Z,9.279830
2022-11-20T00:20:15.925Z,9.279869
2022-11-20T00:21:15.915Z,9.279908
2022-11-20T00:22:15.911Z,9.279818
2022-11-20T00:23:15.868Z,9.279841
2022-11-20T00:24:15.850Z,9.279805
2022-11-20T00:25:15.833Z,9.279813
2022-11-20T00:26:15.824Z,9.279858
2022-11-20T00:27:15.829Z,9.279904
2022-11-20T00:28:15.777Z,9.279894
2022-11-20T00:29:15.759Z,9.279768
2022-11-20T00:30:15.749Z,9.279794
2022-11-20T00:31:15.718Z,9.279797
2022-11-20T00:32:15.731Z,9.279797
2022-11-20T00:33:15.682Z,9.279710
2022-11-20T00:34:15.671Z,9.279813
2022-11-20T00:35:15.642Z,9.279770
2022-11-20T00:36:15.623Z,9.279896
2022-11-20T00:37:15.629Z,9.279940
2022-11-20T00:38:15.580Z,9.279947
2022-11-20T00:39:15.567Z,9.279929
2022-11-20T00:40:15.544Z,9.279838
2022-11-20T00:41:15.528Z,9.279905
2022-11-20T00:42:15.556Z,9.279861
2022-11-20T00:43:15.486Z,9.279875
2022-11-20T00:44:15.511Z,9.279779
2022-11-20T00:45:15.450Z,9.279914
2022-11-20T00:46:15.431Z,9.279900
2022-11-20T00:47:15.430Z,9.279977
2022-11-20T00:48:15.387Z,9.279952
2022-11-20T00:49:15.370Z,9.279898
2022-11-20T00:50:15.347Z,9.279906
2022-11-20T00:51:15.318Z,9.279924
2022-11-20T00:52:16.340Z,9.279984
2022-11-20T00:53:15.290Z,9.280001
2022-11-20T00:54:15.270Z,9.279981
2022-11-20T00:55:15.259Z,9.279947
2022-11-20T00:56:15.229Z,9.279879
2022-11-20T00:57:15.236Z,9.279942
2022-11-20T00:58:15.222Z,9.279924
2022-11-20T00:59:15.171Z,9.279954
2022-11-20T01:00:15.148Z,9.279919
2022-11-20T01:01:15.226Z,9.279934
2022-11-20T01:02:15.142Z,9.279961
2022-11-20T01:03:15.098Z,9.279902
2022-11-20T01:04:15.073Z,9.279921
2022-11-20T01:05:15.063Z,9.279880
2022-11-20T01:06:15.046Z,9.279855
2022-11-20T01:07:15.088Z,9.279929
2022-11-20T01:08:15.003Z,9.279895
2022-11-20T01:09:14.978Z,9.279988
2022-11-20T01:10:14.960Z,9.280014
2022-11-20T01:11:14.966Z,9.280018
2022-11-20T01:12:14.948Z,9.280018
2022-11-20T01:13:14.907Z,9.279829
2022-11-20T01:14:14.880Z,9.279945
2022-11-20T01:15:14.862Z,9.279974
2022-11-20T01:16:14.837Z,9.279894
2022-11-20T01:17:14.860Z,9.279986
2022-11-20T01:18:14.828Z,9.279786
2022-11-20T01:19:17.638Z,9.279867
2022-11-20T01:20:15.775Z,9.280002
2022-11-20T01:21:14.755Z,9.279984
2022-11-20T01:22:14.771Z,9.280083
2022-11-20T01:23:14.705Z,9.279924
2022-11-20T01:24:14.695Z,9.279956
2022-11-20T01:25:14.659Z,9.279951
2022-11-20T01:26:14.644Z,9.279942
2022-11-20T01:27:14.685Z,9.280029
2022-11-20T01:28:14.603Z,9.279963
2022-11-20T01:29:14.585Z,9.280013
2022-11-20T01:30:14.592Z,9.280043
2022-11-20T01:31:14.551Z,9.279876
2022-11-20T01:32:14.530Z,9.280049
2022-11-20T01:33:14.522Z,9.280133
2022-11-20T01:34:14.483Z,9.279939
2022-11-20T01:35:14.466Z,9.280016
2022-11-20T01:36:14.441Z,9.279916
2022-11-20T01:37:14.459Z,9.279913
2022-11-20T01:38:14.407Z,9.279945
2022-11-20T01:39:14.380Z,9.279940
2022-11-20T01:40:14.360Z,9.279923
2022-11-20T01:41:14.347Z,9.279932
2022-11-20T01:42:14.354Z,9.279951
2022-11-20T01:43:14.329Z,9.279857
2022-11-20T01:44:14.286Z,9.279914
2022-11-20T01:45:14.265Z,9.279864
2022-11-20T01:46:14.253Z,9.279890
2022-11-20T01:47:14.267Z,9.279914
2022-11-20T01:48:14.211Z,9.279922
2022-11-20T01:49:14.191Z,9.279973
2022-11-20T01:50:14.168Z,9.279978
2022-11-20T01:51:14.162Z,9.280064
2022-11-20T01:52:14.159Z,9.280010
2022-11-20T01:53:14.177Z,9.279892
2022-11-20T01:54:14.095Z,9.280046
2022-11-20T01:55:14.080Z,9.279935
2022-11-20T01:56:14.062Z,9.279872
2022-11-20T01:57:14.071Z,9.279916
2022-11-20T01:58:14.026Z,9.279918
2022-11-20T01:59:14.016Z,9.279868
2022-11-20T02:00:13.986Z,9.279844
2022-11-20T02:01:14.067Z,9.279876
2022-11-20T02:02:13.981Z,9.279939
2022-11-20T02:03:13.936Z,9.280045
2022-11-20T02:04:13.914Z,9.279982
2022-11-20T02:05:13.903Z,9.280053
2022-11-20T02:06:13.875Z,9.279926
2022-11-20T02:07:13.961Z,9.279879
2022-11-20T02:08:13.833Z,9.279813
2022-11-20T02:09:13.814Z,9.279767
2022-11-20T02:10:13.797Z,9.279673
2022-11-20T02:11:13.779Z,9.279765
2022-11-20T02:12:13.777Z,9.279842
2022-11-20T02:13:13.742Z,9.279951
2022-11-20T02:14:13.718Z,9.279905
2022-11-20T02:15:13.710Z,9.279872
2022-11-20T02:16:13.688Z,9.279984
2022-11-20T02:17:13.689Z,9.279994
2022-11-20T02:18:13.646Z,9.279922
2022-11-20T02:19:13.623Z,9.279768
2022-11-20T02:20:13.606Z,9.279803
2022-11-20T02:21:13.590Z,9.279807
2022-11-20T02:22:13.659Z,9.279686
2022-11-20T02:23:13.554Z,9.279830
2022-11-20T02:24:13.535Z,9.279984
2022-11-20T02:25:14.511Z,9.279911
2022-11-20T02:26:13.491Z,9.279931
2022-11-20T02:27:13.503Z,9.280009
2022-11-20T02:28:13.458Z,9.279819
2022-11-20T02:29:13.469Z,9.279846
2022-11-20T02:30:13.428Z,9.279967
2022-11-20T02:31:14.356Z,9.279886
2022-11-20T02:32:13.409Z,9.279965
2022-11-20T02:33:13.402Z,9.279953
2022-11-20T02:34:13.359Z,9.279902
2022-11-20T02:35:13.387Z,9.279860
2022-11-20T02:36:13.312Z,9.279877
2022-11-20T02:37:13.320Z,9.279842
2022-11-20T02:38:13.271Z,9.279966
2022-11-20T02:39:13.254Z,9.279732
2022-11-20T02:40:13.241Z,9.279639
2022-11-20T02:41:13.213Z,9.279788
2022-11-20T02:42:13.227Z,9.279865
2022-11-20T02:43:13.186Z,9.279862
2022-11-20T02:44:13.191Z,9.280001
2022-11-20T02:45:13.187Z,9.279922
2022-11-20T02:46:13.131Z,9.280066
2022-11-20T02:47:13.139Z,9.279916
2022-11-20T02:48:13.097Z,9.279939
2022-11-20T02:49:13.103Z,9.279834
2022-11-20T02:50:13.074Z,9.279785
2022-11-20T02:51:13.046Z,9.279869
2022-11-20T02:52:13.062Z,9.279826
2022-11-20T02:53:13.017Z,9.279871
2022-11-20T02:54:12.990Z,9.280005
2022-11-20T02:55:12.974Z,9.280073
2022-11-20T02:56:12.956Z,9.279984
2022-11-20T02:57:12.962Z,9.279952
2022-11-20T02:58:12.927Z,9.280068
2022-11-20T02:59:12.909Z,9.280004
2022-11-20T03:00:12.885Z,9.280024
2022-11-20T03:01:12.894Z,9.279999
2022-11-20T03:02:12.879Z,9.279984
2022-11-20T03:03:12.831Z,9.280028
2022-11-20T03:04:12.835Z,9.279947
2022-11-20T03:05:12.794Z,9.279934
2022-11-20T03:06:12.774Z,9.279951
2022-11-20T03:07:12.810Z,9.280019
2022-11-20T03:08:12.758Z,9.279958
2022-11-20T03:09:12.717Z,9.279941
2022-11-20T03:10:12.702Z,9.279938
2022-11-20T03:11:12.682Z,9.279948
2022-11-20T03:12:12.688Z,9.279970
2022-11-20T03:13:12.641Z,9.279871
2022-11-20T03:14:12.633Z,9.279935
2022-11-20T03:15:12.730Z,9.279922
2022-11-20T03:16:12.616Z,9.280058
2022-11-20T03:17:12.616Z,9.280094
2022-11-20T03:18:12.553Z,9.279903
2022-11-20T03:19:12.535Z,9.279892
2022-11-20T03:20:12.514Z,9.279925
2022-11-20T03:21:12.495Z,9.279912
2022-11-20T03:22:12.540Z,9.279949
2022-11-20T03:23:12.465Z,9.279914
2022-11-20T03:24:12.437Z,9.279943
2022-11-20T03:25:12.443Z,9.279909
2022-11-20T03:26:12.410Z,9.279938
2022-11-20T03:27:12.413Z,9.279938
2022-11-20T03:28:12.364Z,9.279929
2022-11-20T03:29:12.357Z,9.279963
2022-11-20T03:30:12.328Z,9.279930
2022-11-20T03:31:12.305Z,9.280012
2022-11-20T03:32:12.312Z,9.279972
2022-11-20T03:33:12.269Z,9.280064
2022-11-20T03:34:12.254Z,9.279929
2022-11-20T03:35:12.236Z,9.279904
2022-11-20T03:36:12.217Z,9.279940
2022-11-20T03:37:12.220Z,9.279922
2022-11-20T03:38:12.176Z,9.279889
2022-11-20T03:39:12.173Z,9.279979
2022-11-20T03:40:12.140Z,9.279923
2022-11-20T03:41:12.120Z,9.279875
2022-11-20T03:42:12.128Z,9.279914
2022-11-20T03:43:12.087Z,9.279931
2022-11-20T03:44:12.066Z,9.280017
2022-11-20T03:45:12.077Z,9.279972
2022-11-20T03:46:12.034Z,9.279933
2022-11-20T03:47:12.043Z,9.279872
2022-11-20T03:48:11.991Z,9.279823
2022-11-20T03:49:11.977Z,9.279877
2022-11-20T03:50:11.963Z,9.279849
2022-11-20T03:51:11.937Z,9.279769
2022-11-20T03:52:11.945Z,9.279749
2022-11-20T03:53:11.908Z,9.279821
2022-11-20T03:54:11.875Z,9.279849
2022-11-20T03:55:11.888Z,9.279747
2022-11-20T03:56:11.846Z,9.279818
2022-11-20T03:57:11.855Z,9.279840
2022-11-20T03:58:11.803Z,9.279963
2022-11-20T03:59:11.789Z,9.279992
2022-11-20T04:00:11.790Z,9.279975
2022-11-20T04:01:11.745Z,9.279972
2022-11-20T04:02:11.761Z,9.280076
2022-11-20T04:03:11.735Z,9.279945
2022-11-20T04:04:11.688Z,9.279845
2022-11-20T04:05:11.667Z,9.279931
2022-11-20T04:06:11.653Z,9.279891
2022-11-20T04:07:11.677Z,9.279915
2022-11-20T04:08:11.635Z,9.279886
2022-11-20T04:09:11.596Z,9.279947
2022-11-20T04:10:11.575Z,9.279857
2022-11-20T04:11:11.557Z,9.279929
2022-11-20T04:12:11.537Z,9.279944
2022-11-20T04:13:11.546Z,9.279825
2022-11-20T04:14:11.501Z,9.279793
2022-11-20T04:15:11.506Z,9.279804
2022-11-20T04:16:11.465Z,9.279795
2022-11-20T04:17:11.446Z,9.279772
2022-11-20T04:18:11.422Z,9.279737
2022-11-20T04:19:11.408Z,9.279827
2022-11-20T04:20:11.411Z,9.279799
2022-11-20T04:21:11.369Z,9.279809
2022-11-20T04:22:11.353Z,9.279770
2022-11-20T04:23:11.498Z,9.279781
2022-11-20T04:24:11.340Z,9.279810
2022-11-20T04:25:11.293Z,9.279870
2022-11-20T04:26:11.305Z,9.279747
2022-11-20T04:27:11.254Z,9.279745
2022-11-20T04:28:11.270Z,9.279752
2022-11-20T04:29:11.222Z,9.279830
2022-11-20T04:30:11.197Z,9.279730
2022-11-20T04:31:11.199Z,9.279799
2022-11-20T04:32:11.175Z,9.279875
2022-11-20T04:33:11.202Z,9.280008
2022-11-20T04:34:11.132Z,9.279843
2022-11-20T04:35:11.143Z,9.279742
2022-11-20T04:36:11.135Z,9.279841
2022-11-20T04:37:11.075Z,9.279820
2022-11-20T04:38:11.053Z,9.279918
2022-11-20T04:39:11.037Z,9.279833
2022-11-20T04:40:11.061Z,9.279702
2022-11-20T04:41:11.006Z,9.279770
2022-11-20T04:42:10.994Z,9.279717
2022-11-20T04:43:11.015Z,9.279618
2022-11-20T04:44:10.955Z,9.279690
2022-11-20T04:45:11.046Z,9.279621
2022-11-20T04:46:10.916Z,9.279696
2022-11-20T04:47:10.905Z,9.279799
2022-11-20T04:48:10.909Z,9.279779
2022-11-20T04:49:10.861Z,9.279724
2022-11-20T04:50:10.894Z,9.279769
2022-11-20T04:51:10.828Z,9.279797
2022-11-20T04:52:10.807Z,9.279858
2022-11-20T04:53:10.817Z,9.279745
2022-11-20T04:54:10.773Z,9.279717
2022-11-20T04:55:10.752Z,9.279807
2022-11-20T04:56:10.761Z,9.279949
2022-11-20T04:57:14.454Z,9.279852
2022-11-20T04:58:11.722Z,9.279828
2022-11-20T04:59:10.682Z,9.279760
2022-11-20T05:00:10.668Z,9.279770
2022-11-20T05:01:10.753Z,9.279801
2022-11-20T05:02:10.636Z,9.279746
2022-11-20T05:03:10.647Z,9.279726
2022-11-20T05:04:10.588Z,9.279774
2022-11-20T05:05:10.570Z,9.279786
2022-11-20T05:06:10.544Z,9.279828
2022-11-20T05:07:11.597Z,9.279917
2022-11-20T05:08:10.537Z,9.279832
2022-11-20T05:09:10.498Z,9.279876
2022-11-20T05:10:10.476Z,9.279810
2022-11-20T05:11:10.457Z,9.279843
2022-11-20T05:12:10.439Z,9.279839
2022-11-20T05:13:10.445Z,9.279872
2022-11-20T05:14:10.403Z,9.279859
2022-11-20T05:15:10.387Z,9.279711
2022-11-20T05:16:10.376Z,9.279737
2022-11-20T05:17:10.349Z,9.279886
2022-11-20T05:18:10.362Z,9.279948
2022-11-20T05:19:10.316Z,9.279984
2022-11-20T05:20:10.297Z,9.280025
2022-11-20T05:21:10.307Z,9.280007
2022-11-20T05:22:10.260Z,9.279890
2022-11-20T05:23:10.272Z,9.279769
2022-11-20T05:24:10.226Z,9.279851
2022-11-20T05:25:10.224Z,9.279815
2022-11-20T05:26:10.189Z,9.279885
2022-11-20T05:27:10.172Z,9.279860
2022-11-20T05:28:10.185Z,9.279843
2022-11-20T05:29:10.135Z,9.279804
2022-11-20T05:30:10.124Z,9.279858
2022-11-20T05:31:10.102Z,9.279828
2022-11-20T05:32:10.085Z,9.279914
2022-11-20T05:33:10.101Z,9.279998
2022-11-20T05:34:10.052Z,9.280105
2022-11-20T05:35:10.055Z,9.279927
2022-11-20T05:36:10.013Z,9.279954
2022-11-20T05:37:09.997Z,9.279968
2022-11-20T05:38:10.008Z,9.280005
2022-11-20T05:39:09.963Z,9.279927
2022-11-20T05:40:09.944Z,9.279905
2022-11-20T05:41:09.950Z,9.279909
2022-11-20T05:42:09.902Z,9.279956
2022-11-20T05:43:09.912Z,9.279928
2022-11-20T05:44:09.874Z,9.279947
2022-11-20T05:45:09.852Z,9.279943
2022-11-20T05:46:09.839Z,9.279968
2022-11-20T05:47:09.811Z,9.279959
2022-11-20T05:48:10.825Z,9.279892
2022-11-20T05:49:09.786Z,9.279889
2022-11-20T05:50:09.776Z,9.279940
2022-11-20T05:51:09.757Z,9.279991
2022-11-20T05:52:10.039Z,9.279920
2022-11-20T05:53:09.746Z,9.279933
2022-11-20T05:54:09.696Z,9.279887
2022-11-20T05:55:09.675Z,9.279907
2022-11-20T05:56:09.689Z,9.279961
2022-11-20T05:57:09.644Z,9.279963
2022-11-20T05:58:09.625Z,9.279937
2022-11-20T05:59:09.616Z,9.279973
2022-11-20T06:00:09.593Z,9.279957
2022-11-20T06:01:09.577Z,9.279951
2022-11-20T06:02:09.741Z,9.279966
2022-11-20T06:03:09.622Z,9.279984
2022-11-20T06:04:09.534Z,9.280007
2022-11-20T06:05:09.726Z,9.279946
2022-11-20T06:06:09.486Z,9.279914
2022-11-20T06:07:09.530Z,9.279917
2022-11-20T06:08:09.482Z,9.279895
2022-11-20T06:09:09.430Z,9.279922
2022-11-20T06:10:09.436Z,9.279945
2022-11-20T06:11:09.396Z,9.279858
2022-11-20T06:12:09.380Z,9.279902
2022-11-20T06:13:09.389Z,9.279807
2022-11-20T06:14:09.341Z,9.279927
2022-11-20T06:15:09.328Z,9.279893
2022-11-20T06:16:09.306Z,9.279967
2022-11-20T06:17:09.285Z,9.280000
2022-11-20T06:18:09.293Z,9.279963
2022-11-20T06:19:09.257Z,9.279883
2022-11-20T06:20:09.239Z,9.279853
2022-11-20T06:21:09.217Z,9.279952
2022-11-20T06:22:09.208Z,9.279846
2022-11-20T06:23:09.208Z,9.279936
2022-11-20T06:24:09.187Z,9.279910
2022-11-20T06:25:09.155Z,9.279957
2022-11-20T06:26:09.126Z,9.279967
2022-11-20T06:27:09.111Z,9.279969
2022-11-20T06:28:09.131Z,9.279974
2022-11-20T06:29:09.074Z,9.280035
2022-11-20T06:30:09.061Z,9.279951
2022-11-20T06:31:09.037Z,9.280011
2022-11-20T06:32:09.017Z,9.279942
2022-11-20T06:33:09.039Z,9.279902
2022-11-20T06:34:09.030Z,9.279942
2022-11-20T06:35:08.968Z,9.279958
2022-11-20T06:36:10.971Z,9.279902
2022-11-20T06:37:09.933Z,9.279983
2022-11-20T06:38:08.945Z,9.279964
2022-11-20T06:39:08.893Z,9.279870
2022-11-20T06:40:08.949Z,9.279840
2022-11-20T06:41:08.863Z,9.279920
2022-11-20T06:42:08.867Z,9.280006
2022-11-20T06:43:08.827Z,9.279996
2022-11-20T06:44:08.812Z,9.279983
2022-11-20T06:45:08.790Z,9.279984
2022-11-20T06:46:08.776Z,9.280066
2022-11-20T06:47:08.783Z,9.280033
2022-11-20T06:48:08.793Z,9.279996
2022-11-20T06:49:08.728Z,9.279926
2022-11-20T06:50:08.716Z,9.279889
2022-11-20T06:51:08.698Z,9.279916
2022-11-20T06:52:08.665Z,9.279955
2022-11-20T06:53:08.693Z,9.279878
2022-11-20T06:54:08.642Z,9.279952
2022-11-20T06:55:08.621Z,9.280006
2022-11-20T06:56:08.603Z,9.280066
2022-11-20T06:57:08.602Z,9.279844
2022-11-20T06:58:08.595Z,9.279848
2022-11-20T06:59:08.542Z,9.279859
2022-11-20T07:00:08.532Z,9.279937
2022-11-20T07:01:08.584Z,9.279946
2022-11-20T07:02:08.519Z,9.280013
2022-11-20T07:03:08.469Z,9.280010
2022-11-20T07:04:08.455Z,9.279783
2022-11-20T07:05:08.453Z,9.279969
2022-11-20T07:06:08.430Z,9.279693
2022-11-20T07:07:08.573Z,9.279808
2022-11-20T07:08:08.394Z,9.279821
2022-11-20T07:09:12.596Z,9.279902
2022-11-20T07:10:09.358Z,9.279896
2022-11-20T07:11:08.339Z,9.280046
2022-11-20T07:12:08.338Z,9.279866
2022-11-20T07:13:08.298Z,9.279976
2022-11-20T07:14:08.300Z,9.280276
2022-11-20T07:15:08.267Z,9.280151
2022-11-20T07:16:08.234Z,9.280076
2022-11-20T07:17:08.215Z,9.280021
2022-11-20T07:18:08.207Z,9.280050
2022-11-20T07:19:08.206Z,9.280027
2022-11-20T07:20:08.159Z,9.280107
2022-11-20T07:21:08.142Z,9.280134
2022-11-20T07:22:08.137Z,9.279971
2022-11-20T07:23:08.107Z,9.279937
2022-11-20T07:24:08.311Z,9.279951
2022-11-20T07:25:08.068Z,9.279935
2022-11-20T07:26:08.077Z,9.279671
2022-11-20T07:27:08.106Z,9.279907
2022-11-20T07:28:08.014Z,9.279826
2022-11-20T07:29:07.988Z,9.279950
2022-11-20T07:30:08.029Z,9.279937
2022-11-20T07:31:08.011Z,9.279896
2022-11-20T07:32:07.966Z,9.279833
2022-11-20T07:33:07.917Z,9.279923
2022-11-20T07:34:07.952Z,9.279851
2022-11-20T07:35:07.871Z,9.279906
2022-11-20T07:36:07.858Z,9.279801
2022-11-20T07:37:10.497Z,9.279656
2022-11-20T07:38:08.817Z,9.279814
2022-11-20T07:39:07.831Z,9.279889
2022-11-20T07:40:07.775Z,9.279853
2022-11-20T07:41:07.755Z,9.279979
2022-11-20T07:42:07.741Z,9.280091
2022-11-20T07:43:07.709Z,9.280088
2022-11-20T07:44:07.747Z,9.279972
2022-11-20T07:45:07.673Z,9.279933
2022-11-20T07:46:07.656Z,9.279880
2022-11-20T07:47:07.663Z,9.279966
2022-11-20T07:48:07.629Z,9.279840
2022-11-20T07:49:07.617Z,9.279819
2022-11-20T07:50:07.582Z,9.279910
2022-11-20T07:51:07.565Z,9.279842
2022-11-20T07:52:07.552Z,9.279866
2022-11-20T07:53:07.514Z,9.279850
2022-11-20T07:54:07.530Z,9.279830
2022-11-20T07:55:07.473Z,9.279713
2022-11-20T07:56:07.455Z,9.279922
2022-11-20T07:57:07.472Z,9.279928
2022-11-20T07:58:07.419Z,9.279951
2022-11-20T07:59:07.419Z,9.280178
2022-11-20T08:00:07.382Z,9.280178
2022-11-20T08:01:07.396Z,9.280073
2022-11-20T08:02:07.336Z,9.279986
2022-11-20T08:03:07.316Z,9.279921
2022-11-20T08:04:07.321Z,9.279510
2022-11-20T08:05:07.317Z,9.279537
2022-11-20T08:06:07.249Z,9.279728
2022-11-20T08:07:07.277Z,9.279717
2022-11-20T08:08:07.220Z,9.279562
2022-11-20T08:09:07.211Z,9.279521
2022-11-20T08:10:07.181Z,9.279726
2022-11-20T08:11:07.159Z,9.279818
2022-11-20T08:12:07.125Z,9.279880
2022-11-20T08:13:07.129Z,9.279843
2022-11-20T08:14:07.108Z,9.279902
2022-11-20T08:15:12.601Z,9.279832
2022-11-20T08:16:09.042Z,9.279759
2022-11-20T08:17:07.084Z,9.279834
2022-11-20T08:18:33.439Z,9.279756
2022-11-20T08:19:09.144Z,9.279714
2022-11-20T08:20:06.956Z,9.279717
2022-11-20T08:21:06.940Z,9.279726
2022-11-20T08:22:06.927Z,9.279812
2022-11-20T08:23:06.901Z,9.279855
2022-11-20T08:24:07.095Z,9.279731
2022-11-20T08:25:06.869Z,9.279829
2022-11-20T08:26:06.836Z,9.279832
2022-11-20T08:27:06.829Z,9.279876
2022-11-20T08:28:18.334Z,9.279838
2022-11-20T08:29:08.802Z,9.279873
2022-11-20T08:30:06.747Z,9.279870
2022-11-20T08:31:07.731Z,9.279832
2022-11-20T08:32:06.719Z,9.279671
2022-11-20T08:33:06.718Z,9.279757
2022-11-20T08:34:09.477Z,9.279704
2022-11-20T08:35:07.661Z,9.279821
2022-11-20T08:36:06.622Z,9.279860
2022-11-20T08:37:06.606Z,9.279962
2022-11-20T08:38:06.608Z,9.280050
2022-11-20T08:39:06.591Z,9.279984
2022-11-20T08:40:06.543Z,9.279894
2022-11-20T08:41:06.526Z,9.279918
2022-11-20T08:42:06.506Z,9.279906
2022-11-20T08:43:06.501Z,9.279900
2022-11-20T08:44:06.499Z,9.279820
2022-11-20T08:45:06.498Z,9.279900
2022-11-20T08:46:06.534Z,9.279967
2022-11-20T08:47:06.431Z,9.279942
2022-11-20T08:48:06.402Z,9.280026
2022-11-20T08:49:06.408Z,9.280002
2022-11-20T08:50:06.357Z,9.280057
2022-11-20T08:51:06.335Z,9.280028
2022-11-20T08:52:06.343Z,9.280048
2022-11-20T08:53:06.326Z,9.280016
2022-11-20T08:54:06.310Z,9.280004
2022-11-20T08:55:06.272Z,9.279868
2022-11-20T08:56:06.250Z,9.279892
2022-11-20T08:57:06.231Z,9.280088
2022-11-20T08:58:06.211Z,9.279834
2022-11-20T08:59:37.208Z,9.280036
2022-11-20T09:00:08.538Z,9.279895
2022-11-20T09:01:07.271Z,9.279955
2022-11-20T09:02:06.150Z,9.279921
2022-11-20T09:03:06.125Z,9.279950
2022-11-20T09:04:06.163Z,9.279989
2022-11-20T09:05:06.084Z,9.280020
2022-11-20T09:06:06.088Z,9.280002
2022-11-20T09:07:06.126Z,9.279964
2022-11-20T09:08:06.033Z,9.279964
2022-11-20T09:09:07.025Z,9.279951
2022-11-20T09:10:23.692Z,9.279939
2022-11-20T09:11:07.965Z,9.279953
2022-11-20T09:12:05.940Z,9.280043
2022-11-20T09:13:05.947Z,9.279965
2022-11-20T09:14:05.983Z,9.279956
2022-11-20T09:15:06.636Z,9.280041
2022-11-20T09:16:05.857Z,9.280011
2022-11-20T09:17:05.837Z,9.280004
2022-11-20T09:18:05.826Z,9.279972
2022-11-20T09:19:40.524Z,9.280009
2022-11-20T09:20:07.774Z,9.279977
2022-11-20T09:21:05.787Z,9.279947
2022-11-20T09:22:05.744Z,9.279939
2022-11-20T09:23:05.700Z,9.279881
2022-11-20T09:24:05.717Z,9.279921
2022-11-20T09:25:05.654Z,9.279939
2022-11-20T09:26:05.643Z,9.280000
2022-11-20T09:27:05.618Z,9.279999
2022-11-20T09:28:05.597Z,9.280058
2022-11-20T09:29:05.627Z,9.279952
2022-11-20T09:30:05.602Z,9.279972
2022-11-20T09:31:05.545Z,9.279966
2022-11-20T09:32:05.507Z,9.279933
2022-11-20T09:33:05.510Z,9.279976
2022-11-20T09:34:05.485Z,9.279939
2022-11-20T09:35:05.444Z,9.279881
2022-11-20T09:36:05.431Z,9.279908
2022-11-20T09:37:07.619Z,9.279952
2022-11-20T09:38:05.379Z,9.280015
2022-11-20T09:39:05.382Z,9.279982
2022-11-20T09:40:05.348Z,9.280006
2022-11-20T09:41:05.315Z,9.279967
2022-11-20T09:42:05.306Z,9.279921
2022-11-20T09:43:05.265Z,9.279795
2022-11-20T09:44:05.281Z,9.279819
2022-11-20T09:45:05.231Z,9.279899
2022-11-20T09:46:05.201Z,9.279945
2022-11-20T09:47:05.179Z,9.279979
2022-11-20T09:48:05.156Z,9.279980
2022-11-20T09:49:05.160Z,9.279990
2022-11-20T09:50:05.117Z,9.279984
2022-11-20T09:51:05.094Z,9.279957
2022-11-20T09:52:05.066Z,9.279926
2022-11-20T09:53:05.039Z,9.279933
2022-11-20T09:54:05.050Z,9.279979
2022-11-20T09:55:05.034Z,9.279816
2022-11-20T09:56:04.967Z,9.279903
2022-11-20T09:57:04.959Z,9.279944
2022-11-20T09:58:04.956Z,9.279946
2022-11-20T09:59:04.934Z,9.279916
2022-11-20T10:00:04.918Z,9.279907
2022-11-20T10:01:04.951Z,9.279858
2022-11-20T10:02:04.859Z,9.279951
2022-11-20T10:03:04.832Z,9.279940
2022-11-20T10:04:04.860Z,9.279843
2022-11-20T10:05:04.810Z,9.279881
2022-11-20T10:06:04.779Z,9.279912
2022-11-20T10:07:30.921Z,9.279986
2022-11-20T10:08:06.794Z,9.279944
2022-11-20T10:09:04.736Z,9.279916
2022-11-20T10:10:04.742Z,9.279886
2022-11-20T10:11:04.698Z,9.279874
2022-11-20T10:12:04.700Z,9.279891
2022-11-20T10:13:04.660Z,9.279878
2022-11-20T10:14:04.775Z,9.279779
2022-11-20T10:15:04.642Z,9.279858
2022-11-20T10:16:04.601Z,9.279936
2022-11-20T10:17:04.592Z,9.279942
2022-11-20T10:18:04.567Z,9.279999
2022-11-20T10:19:04.554Z,9.279919
2022-11-20T10:20:04.563Z,9.279831
2022-11-20T10:21:04.519Z,9.279909
2022-11-20T10:22:04.516Z,9.279943
2022-11-20T10:23:04.486Z,9.279942
2022-11-20T10:24:04.463Z,9.279914
2022-11-20T10:25:04.465Z,9.279941
2022-11-20T10:26:04.427Z,9.279924
2022-11-20T10:27:04.397Z,9.279808
2022-11-20T10:28:04.392Z,9.279941
2022-11-20T10:29:08.659Z,9.279922
2022-11-20T10:30:05.373Z,9.279907
2022-11-20T10:31:04.329Z,9.279947
2022-11-20T10:32:04.340Z,9.279908
2022-11-20T10:33:04.290Z,9.279874
2022-11-20T10:34:12.208Z,9.279895
2022-11-20T10:35:06.304Z,9.279922
2022-11-20T10:36:04.233Z,9.279950
2022-11-20T10:37:04.315Z,9.280065
2022-11-20T10:38:04.195Z,9.279969
2022-11-20T10:39:04.180Z,9.279963
2022-11-20T10:40:04.171Z,9.279712
2022-11-20T10:41:05.141Z,9.279875
2022-11-20T10:42:04.120Z,9.279938
2022-11-20T10:43:04.104Z,9.279892
2022-11-20T10:44:04.079Z,9.279904
2022-11-20T10:45:06.817Z,9.279884
2022-11-20T10:46:05.039Z,9.279887
2022-11-20T10:47:04.014Z,9.279828
2022-11-20T10:48:05.014Z,9.279857
2022-11-20T10:49:04.028Z,9.279893
2022-11-20T10:50:03.992Z,9.279857
2022-11-20T10:51:03.953Z,9.279917
2022-11-20T10:52:03.955Z,9.279864
2022-11-20T10:53:03.921Z,9.279881
2022-11-20T10:54:03.895Z,9.279923
2022-11-20T10:55:03.925Z,9.279952
2022-11-20T10:56:03.863Z,9.279920
2022-11-20T10:57:03.845Z,9.279903
2022-11-20T10:58:03.826Z,9.279877
2022-11-20T10:59:03.836Z,9.279929
2022-11-20T11:00:04.806Z,9.279877
2022-11-20T11:01:03.830Z,9.279847
2022-11-20T11:02:03.861Z,9.279847
2022-11-20T11:03:03.736Z,9.279990
2022-11-20T11:04:03.703Z,9.279857
2022-11-20T11:05:03.715Z,9.279851
2022-11-20T11:06:03.690Z,9.279894
2022-11-20T11:07:03.674Z,9.279942
2022-11-20T11:08:03.705Z,9.279843
2022-11-20T11:09:03.610Z,9.279863
2022-11-20T11:10:03.617Z,9.279941
2022-11-20T11:11:03.578Z,9.279796
2022-11-20T11:12:07.091Z,9.279903
2022-11-20T11:13:04.540Z,9.279925
2022-11-20T11:14:03.518Z,9.279950
2022-11-20T11:15:03.522Z,9.279965
2022-11-20T11:16:03.486Z,9.279954
2022-11-20T11:17:03.472Z,9.279902
2022-11-20T11:18:03.442Z,9.279889
2022-11-20T11:19:03.439Z,9.279924
2022-11-20T11:20:03.438Z,9.279948
2022-11-20T11:21:03.391Z,9.279995
2022-11-20T11:22:03.376Z,9.279988
2022-11-20T11:23:03.375Z,9.279768
2022-11-20T11:24:26.968Z,9.279892
2022-11-20T11:25:05.350Z,9.279978
2022-11-20T11:26:03.328Z,9.280156
2022-11-20T11:27:03.286Z,9.279971
2022-11-20T11:28:03.263Z,9.279954
2022-11-20T11:29:03.247Z,9.279933
2022-11-20T11:30:03.227Z,9.279844
2022-11-20T11:31:03.234Z,9.279902
2022-11-20T11:32:03.227Z,9.279974
2022-11-20T11:33:03.175Z,9.279903
2022-11-20T11:34:03.153Z,9.279988
2022-11-20T11:35:03.174Z,9.280131
2022-11-20T11:36:03.112Z,9.280094
2022-11-20T11:37:03.104Z,9.279846
2022-11-20T11:38:03.098Z,9.279722
2022-11-20T11:39:03.061Z,9.279738
2022-11-20T11:40:23.491Z,9.279819
2022-11-20T11:41:05.027Z,9.279955
2022-11-20T11:42:03.004Z,9.280000
2022-11-20T11:43:02.987Z,9.279944
2022-11-20T11:44:02.980Z,9.279737